sensor_id;sensor_type;location;lat;lon;timestamp;temperature;humidity
827;DHT22;395;48.132;11.608;2023-01-05T00:01:37;11.50;7.60
827;DHT22;395;48.132;11.608;2023-01-05T00:04:03;11.60;7.20
827;DHT22;395;48.132;11.608;2023-01-05T00:06:29;11.60;6.80
827;DHT22;395;48.132;11.608;2023-01-05T00:08:55;11.60;6.80
827;DHT22;395;48.132;11.608;2023-01-05T00:11:22;11.60;6.30
827;DHT22;395;48.132;11.608;2023-01-05T00:14:18;11.60;6.30
827;DHT22;395;48.132;11.608;2023-01-05T00:17:03;11.60;6.00
827;DHT22;395;48.132;11.608;2023-01-05T00:19:47;11.60;6.00
827;DHT22;395;48.132;11.608;2023-01-05T00:22:35;11.60;6.10
827;DHT22;395;48.132;11.608;2023-01-05T00:25:10;11.60;6.20
827;DHT22;395;48.132;11.608;2023-01-05T00:27:37;11.60;6.30
827;DHT22;395;48.132;11.608;2023-01-05T00:30:04;11.60;6.10
827;DHT22;395;48.132;11.608;2023-01-05T00:32:30;11.60;5.90
827;DHT22;395;48.132;11.608;2023-01-05T00:34:57;11.70;5.80
827;DHT22;395;48.132;11.608;2023-01-05T00:37:24;11.70;5.60
827;DHT22;395;48.132;11.608;2023-01-05T00:39:51;11.80;5.50
827;DHT22;395;48.132;11.608;2023-01-05T00:42:17;11.80;5.00
827;DHT22;395;48.132;11.608;2023-01-05T00:44:43;11.80;4.70
827;DHT22;395;48.132;11.608;2023-01-05T00:47:09;11.80;5.40
827;DHT22;395;48.132;11.608;2023-01-05T00:49:35;11.80;5.00
827;DHT22;395;48.132;11.608;2023-01-05T00:52:01;11.80;5.00
827;DHT22;395;48.132;11.608;2023-01-05T00:54:27;11.80;4.70
827;DHT22;395;48.132;11.608;2023-01-05T00:56:52;11.90;4.80
827;DHT22;395;48.132;11.608;2023-01-05T00:59:18;11.90;4.80
827;DHT22;395;48.132;11.608;2023-01-05T01:01:48;11.90;4.80
827;DHT22;395;48.132;11.608;2023-01-05T01:04:14;11.90;4.80
827;DHT22;395;48.132;11.608;2023-01-05T01:06:40;12.00;4.80
827;DHT22;395;48.132;11.608;2023-01-05T01:09:06;11.90;4.80
827;DHT22;395;48.132;11.608;2023-01-05T01:11:31;11.90;4.80
827;DHT22;395;48.132;11.608;2023-01-05T01:13:57;11.90;4.80
827;DHT22;395;48.132;11.608;2023-01-05T01:16:23;11.80;4.70
827;DHT22;395;48.132;11.608;2023-01-05T01:18:49;11.80;4.70
827;DHT22;395;48.132;11.608;2023-01-05T01:21:15;11.90;4.80
827;DHT22;395;48.132;11.608;2023-01-05T01:23:42;11.90;4.80
827;DHT22;395;48.132;11.608;2023-01-05T01:26:10;11.90;4.80
827;DHT22;395;48.132;11.608;2023-01-05T01:28:36;12.00;4.30
827;DHT22;395;48.132;11.608;2023-01-05T01:31:02;11.90;4.20
827;DHT22;395;48.132;11.608;2023-01-05T01:33:28;11.90;4.20
827;DHT22;395;48.132;11.608;2023-01-05T01:35:54;11.90;4.80
827;DHT22;395;48.132;11.608;2023-01-05T01:38:20;11.90;4.30
827;DHT22;395;48.132;11.608;2023-01-05T01:40:47;11.90;4.40
827;DHT22;395;48.132;11.608;2023-01-05T01:43:14;11.90;4.40
827;DHT22;395;48.132;11.608;2023-01-05T01:45:41;11.90;4.60
827;DHT22;395;48.132;11.608;2023-01-05T01:48:09;11.80;4.70
827;DHT22;395;48.132;11.608;2023-01-05T01:50:42;11.90;4.80
827;DHT22;395;48.132;11.608;2023-01-05T01:53:34;11.90;4.80
827;DHT22;395;48.132;11.608;2023-01-05T01:56:02;11.90;5.30
827;DHT22;395;48.132;11.608;2023-01-05T01:58:30;11.90;5.70
827;DHT22;395;48.132;11.608;2023-01-05T02:00:57;11.90;5.30
827;DHT22;395;48.132;11.608;2023-01-05T02:03:30;11.90;5.40
827;DHT22;395;48.132;11.608;2023-01-05T02:05:56;11.90;5.60
827;DHT22;395;48.132;11.608;2023-01-05T02:08:23;11.90;5.40
827;DHT22;395;48.132;11.608;2023-01-05T02:11:26;11.90;5.20
827;DHT22;395;48.132;11.608;2023-01-05T02:16:44;11.90;5.90
827;DHT22;395;48.132;11.608;2023-01-05T02:22:12;11.90;7.30
827;DHT22;395;48.132;11.608;2023-01-05T02:38:42;11.90;6.70
827;DHT22;395;48.132;11.608;2023-01-05T02:41:22;11.90;6.60
827;DHT22;395;48.132;11.608;2023-01-05T02:43:49;12.00;6.40
827;DHT22;395;48.132;11.608;2023-01-05T02:46:14;12.00;6.00
827;DHT22;395;48.132;11.608;2023-01-05T02:48:41;12.00;6.20
827;DHT22;395;48.132;11.608;2023-01-05T02:51:17;11.90;6.80
827;DHT22;395;48.132;11.608;2023-01-05T02:53:48;11.90;7.10
827;DHT22;395;48.132;11.608;2023-01-05T02:56:23;11.90;8.10
827;DHT22;395;48.132;11.608;2023-01-05T02:58:57;11.90;8.90
827;DHT22;395;48.132;11.608;2023-01-05T03:01:29;11.90;9.30
827;DHT22;395;48.132;11.608;2023-01-05T03:04:05;11.90;9.40
827;DHT22;395;48.132;11.608;2023-01-05T03:06:33;11.90;10.30
827;DHT22;395;48.132;11.608;2023-01-05T03:09:04;11.90;10.80
827;DHT22;395;48.132;11.608;2023-01-05T03:11:58;11.90;10.80
827;DHT22;395;48.132;11.608;2023-01-05T03:15:04;11.90;10.60
827;DHT22;395;48.132;11.608;2023-01-05T03:17:42;11.80;11.00
827;DHT22;395;48.132;11.608;2023-01-05T03:20:10;11.90;11.40
827;DHT22;395;48.132;11.608;2023-01-05T03:22:38;11.80;12.30
827;DHT22;395;48.132;11.608;2023-01-05T03:25:24;11.80;12.30
827;DHT22;395;48.132;11.608;2023-01-05T03:28:35;11.80;12.50
827;DHT22;395;48.132;11.608;2023-01-05T03:34:26;11.70;13.00
827;DHT22;395;48.132;11.608;2023-01-05T03:37:27;11.70;12.90
827;DHT22;395;48.132;11.608;2023-01-05T03:39:55;11.70;12.50
827;DHT22;395;48.132;11.608;2023-01-05T03:42:21;11.70;12.90
827;DHT22;395;48.132;11.608;2023-01-05T03:44:48;11.70;12.90
827;DHT22;395;48.132;11.608;2023-01-05T03:47:14;11.70;12.80
827;DHT22;395;48.132;11.608;2023-01-05T03:49:40;11.60;12.50
827;DHT22;395;48.132;11.608;2023-01-05T03:52:06;11.70;12.10
827;DHT22;395;48.132;11.608;2023-01-05T03:54:31;11.70;12.10
827;DHT22;395;48.132;11.608;2023-01-05T03:56:57;11.80;12.20
827;DHT22;395;48.132;11.608;2023-01-05T03:59:23;11.70;12.10
827;DHT22;395;48.132;11.608;2023-01-05T04:01:48;11.70;12.10
827;DHT22;395;48.132;11.608;2023-01-05T04:04:14;11.70;12.10
827;DHT22;395;48.132;11.608;2023-01-05T04:06:40;11.70;11.40
827;DHT22;395;48.132;11.608;2023-01-05T04:09:05;11.70;11.60
827;DHT22;395;48.132;11.608;2023-01-05T04:11:31;11.70;11.10
827;DHT22;395;48.132;11.608;2023-01-05T04:13:57;11.80;11.00
827;DHT22;395;48.132;11.608;2023-01-05T04:16:22;11.70;10.80
827;DHT22;395;48.132;11.608;2023-01-05T04:18:48;11.70;11.00
827;DHT22;395;48.132;11.608;2023-01-05T04:21:14;11.70;10.40
827;DHT22;395;48.132;11.608;2023-01-05T04:23:40;11.70;10.30
827;DHT22;395;48.132;11.608;2023-01-05T04:26:06;11.80;9.70
827;DHT22;395;48.132;11.608;2023-01-05T04:28:31;11.70;9.70
827;DHT22;395;48.132;11.608;2023-01-05T04:30:57;11.80;9.20
827;DHT22;395;48.132;11.608;2023-01-05T04:33:24;11.80;8.90
827;DHT22;395;48.132;11.608;2023-01-05T04:35:49;11.80;8.90
827;DHT22;395;48.132;11.608;2023-01-05T04:38:15;11.80;9.10
827;DHT22;395;48.132;11.608;2023-01-05T04:40:41;11.80;8.90
827;DHT22;395;48.132;11.608;2023-01-05T04:43:07;11.80;8.60
827;DHT22;395;48.132;11.608;2023-01-05T04:45:34;11.80;8.00
827;DHT22;395;48.132;11.608;2023-01-05T04:47:59;11.80;8.50
827;DHT22;395;48.132;11.608;2023-01-05T04:50:25;11.80;8.10
827;DHT22;395;48.132;11.608;2023-01-05T04:52:51;11.90;8.10
827;DHT22;395;48.132;11.608;2023-01-05T04:55:17;11.90;7.90
827;DHT22;395;48.132;11.608;2023-01-05T04:57:43;11.90;7.60
827;DHT22;395;48.132;11.608;2023-01-05T05:00:09;11.90;7.70
827;DHT22;395;48.132;11.608;2023-01-05T05:02:36;11.90;7.60
827;DHT22;395;48.132;11.608;2023-01-05T05:05:01;11.90;7.40
827;DHT22;395;48.132;11.608;2023-01-05T05:07:28;12.00;7.20
827;DHT22;395;48.132;11.608;2023-01-05T05:09:53;12.00;7.10
827;DHT22;395;48.132;11.608;2023-01-05T05:12:19;12.00;6.80
827;DHT22;395;48.132;11.608;2023-01-05T05:14:48;12.00;6.50
827;DHT22;395;48.132;11.608;2023-01-05T05:17:15;11.90;6.90
827;DHT22;395;48.132;11.608;2023-01-05T05:19:41;11.90;6.60
827;DHT22;395;48.132;11.608;2023-01-05T05:22:06;12.00;7.00
827;DHT22;395;48.132;11.608;2023-01-05T05:24:32;11.90;7.00
827;DHT22;395;48.132;11.608;2023-01-05T05:26:58;11.90;6.70
827;DHT22;395;48.132;11.608;2023-01-05T05:29:23;11.90;6.60
827;DHT22;395;48.132;11.608;2023-01-05T05:31:50;11.90;6.80
827;DHT22;395;48.132;11.608;2023-01-05T05:34:16;12.00;6.40
827;DHT22;395;48.132;11.608;2023-01-05T05:36:42;12.00;6.20
827;DHT22;395;48.132;11.608;2023-01-05T05:39:10;12.00;6.20
827;DHT22;395;48.132;11.608;2023-01-05T05:41:36;12.00;6.00
827;DHT22;395;48.132;11.608;2023-01-05T05:44:01;12.00;6.20
827;DHT22;395;48.132;11.608;2023-01-05T05:46:27;12.00;6.40
827;DHT22;395;48.132;11.608;2023-01-05T05:48:57;12.00;6.30
827;DHT22;395;48.132;11.608;2023-01-05T05:51:24;11.90;6.50
827;DHT22;395;48.132;11.608;2023-01-05T05:53:50;12.00;6.30
827;DHT22;395;48.132;11.608;2023-01-05T05:56:16;12.00;6.40
827;DHT22;395;48.132;11.608;2023-01-05T05:58:42;11.90;6.80
827;DHT22;395;48.132;11.608;2023-01-05T06:01:08;12.00;6.50
827;DHT22;395;48.132;11.608;2023-01-05T06:03:33;11.90;7.20
827;DHT22;395;48.132;11.608;2023-01-05T06:05:59;11.90;6.70
827;DHT22;395;48.132;11.608;2023-01-05T06:08:25;11.90;7.00
827;DHT22;395;48.132;11.608;2023-01-05T06:10:54;12.00;6.70
827;DHT22;395;48.132;11.608;2023-01-05T06:13:20;11.90;7.00
827;DHT22;395;48.132;11.608;2023-01-05T06:15:45;11.90;6.90
827;DHT22;395;48.132;11.608;2023-01-05T06:18:11;11.90;7.20
827;DHT22;395;48.132;11.608;2023-01-05T06:20:36;11.90;7.00
827;DHT22;395;48.132;11.608;2023-01-05T06:23:03;12.00;6.80
827;DHT22;395;48.132;11.608;2023-01-05T06:25:28;11.90;6.80
827;DHT22;395;48.132;11.608;2023-01-05T06:27:54;12.00;6.70
827;DHT22;395;48.132;11.608;2023-01-05T06:30:20;12.10;6.50
827;DHT22;395;48.132;11.608;2023-01-05T06:32:46;12.00;6.50
827;DHT22;395;48.132;11.608;2023-01-05T06:35:11;12.10;6.70
827;DHT22;395;48.132;11.608;2023-01-05T06:37:37;12.10;6.50
827;DHT22;395;48.132;11.608;2023-01-05T06:40:03;12.10;6.40
827;DHT22;395;48.132;11.608;2023-01-05T06:42:28;12.10;6.20
827;DHT22;395;48.132;11.608;2023-01-05T06:44:54;12.20;6.10
827;DHT22;395;48.132;11.608;2023-01-05T06:47:20;12.20;6.20
827;DHT22;395;48.132;11.608;2023-01-05T06:49:45;12.10;6.40
827;DHT22;395;48.132;11.608;2023-01-05T06:52:11;12.10;6.50
827;DHT22;395;48.132;11.608;2023-01-05T06:54:36;12.00;7.00
827;DHT22;395;48.132;11.608;2023-01-05T06:57:02;12.10;6.30
827;DHT22;395;48.132;11.608;2023-01-05T06:59:28;12.00;6.50
827;DHT22;395;48.132;11.608;2023-01-05T07:01:53;12.10;6.10
827;DHT22;395;48.132;11.608;2023-01-05T07:04:19;12.00;6.30
827;DHT22;395;48.132;11.608;2023-01-05T07:06:45;12.00;6.60
827;DHT22;395;48.132;11.608;2023-01-05T07:09:11;12.00;6.50
827;DHT22;395;48.132;11.608;2023-01-05T07:11:36;12.00;6.50
827;DHT22;395;48.132;11.608;2023-01-05T07:14:02;12.10;6.80
827;DHT22;395;48.132;11.608;2023-01-05T07:16:27;12.00;6.90
827;DHT22;395;48.132;11.608;2023-01-05T07:18:53;12.00;7.30
827;DHT22;395;48.132;11.608;2023-01-05T07:21:19;12.00;7.10
827;DHT22;395;48.132;11.608;2023-01-05T07:23:44;12.00;7.40
827;DHT22;395;48.132;11.608;2023-01-05T07:26:10;12.00;7.50
827;DHT22;395;48.132;11.608;2023-01-05T07:28:36;12.00;7.40
827;DHT22;395;48.132;11.608;2023-01-05T07:31:02;11.90;8.00
827;DHT22;395;48.132;11.608;2023-01-05T07:33:28;11.90;8.10
827;DHT22;395;48.132;11.608;2023-01-05T07:35:54;11.90;8.50
827;DHT22;395;48.132;11.608;2023-01-05T07:38:19;11.90;7.80
827;DHT22;395;48.132;11.608;2023-01-05T07:40:45;12.00;7.70
827;DHT22;395;48.132;11.608;2023-01-05T07:43:11;11.90;7.80
827;DHT22;395;48.132;11.608;2023-01-05T07:45:37;12.00;7.30
827;DHT22;395;48.132;11.608;2023-01-05T07:48:03;11.90;7.40
827;DHT22;395;48.132;11.608;2023-01-05T07:50:29;12.00;7.10
827;DHT22;395;48.132;11.608;2023-01-05T07:52:57;12.00;7.30
827;DHT22;395;48.132;11.608;2023-01-05T07:55:23;12.00;7.40
827;DHT22;395;48.132;11.608;2023-01-05T07:57:49;11.90;7.50
827;DHT22;395;48.132;11.608;2023-01-05T08:00:15;12.00;7.40
827;DHT22;395;48.132;11.608;2023-01-05T08:02:41;12.10;6.90
827;DHT22;395;48.132;11.608;2023-01-05T08:05:07;12.10;6.40
827;DHT22;395;48.132;11.608;2023-01-05T08:07:34;11.80;5.90
827;DHT22;395;48.132;11.608;2023-01-05T08:10:00;12.00;6.50
827;DHT22;395;48.132;11.608;2023-01-05T08:12:45;11.90;7.00
827;DHT22;395;48.132;11.608;2023-01-05T08:15:29;12.00;7.10
827;DHT22;395;48.132;11.608;2023-01-05T08:17:54;12.00;6.90
827;DHT22;395;48.132;11.608;2023-01-05T08:20:21;12.00;6.60
827;DHT22;395;48.132;11.608;2023-01-05T08:22:51;12.10;6.60
827;DHT22;395;48.132;11.608;2023-01-05T08:25:16;12.10;6.30
827;DHT22;395;48.132;11.608;2023-01-05T08:27:42;12.10;6.50
827;DHT22;395;48.132;11.608;2023-01-05T08:30:08;12.20;7.10
827;DHT22;395;48.132;11.608;2023-01-05T08:32:34;12.20;7.70
827;DHT22;395;48.132;11.608;2023-01-05T08:35:00;12.10;8.70
827;DHT22;395;48.132;11.608;2023-01-05T08:37:25;12.10;8.70
827;DHT22;395;48.132;11.608;2023-01-05T08:39:52;12.10;8.70
827;DHT22;395;48.132;11.608;2023-01-05T08:42:18;12.20;8.20
827;DHT22;395;48.132;11.608;2023-01-05T08:44:43;12.20;8.40
827;DHT22;395;48.132;11.608;2023-01-05T08:47:09;12.10;10.10
827;DHT22;395;48.132;11.608;2023-01-05T08:49:35;12.10;11.20
827;DHT22;395;48.132;11.608;2023-01-05T08:52:00;12.10;11.80
827;DHT22;395;48.132;11.608;2023-01-05T08:54:26;12.10;12.20
827;DHT22;395;48.132;11.608;2023-01-05T08:56:52;12.00;12.30
827;DHT22;395;48.132;11.608;2023-01-05T08:59:17;12.00;12.60
827;DHT22;395;48.132;11.608;2023-01-05T09:01:43;11.90;12.80
827;DHT22;395;48.132;11.608;2023-01-05T09:04:09;12.00;12.30
827;DHT22;395;48.132;11.608;2023-01-05T09:06:35;12.00;12.30
827;DHT22;395;48.132;11.608;2023-01-05T09:09:00;12.00;11.80
827;DHT22;395;48.132;11.608;2023-01-05T09:11:26;12.00;10.80
827;DHT22;395;48.132;11.608;2023-01-05T09:13:54;12.00;10.90
827;DHT22;395;48.132;11.608;2023-01-05T09:16:22;12.00;9.80
827;DHT22;395;48.132;11.608;2023-01-05T09:18:49;12.00;9.30
827;DHT22;395;48.132;11.608;2023-01-05T09:21:15;12.10;9.20
827;DHT22;395;48.132;11.608;2023-01-05T09:23:41;12.10;8.70
827;DHT22;395;48.132;11.608;2023-01-05T09:26:09;12.10;7.90
827;DHT22;395;48.132;11.608;2023-01-05T09:28:35;12.20;7.80
827;DHT22;395;48.132;11.608;2023-01-05T09:31:09;12.10;7.60
827;DHT22;395;48.132;11.608;2023-01-05T09:33:36;12.10;7.80
827;DHT22;395;48.132;11.608;2023-01-05T09:36:02;12.10;7.20
827;DHT22;395;48.132;11.608;2023-01-05T09:38:28;12.10;6.80
827;DHT22;395;48.132;11.608;2023-01-05T09:40:57;12.10;6.40
827;DHT22;395;48.132;11.608;2023-01-05T09:43:29;12.10;6.00
827;DHT22;395;48.132;11.608;2023-01-05T09:45:56;12.20;5.10
827;DHT22;395;48.132;11.608;2023-01-05T09:48:24;12.20;5.00
827;DHT22;395;48.132;11.608;2023-01-05T09:50:50;12.20;4.50
827;DHT22;395;48.132;11.608;2023-01-05T09:53:28;12.30;4.20
827;DHT22;395;48.132;11.608;2023-01-05T09:55:54;12.20;4.10
827;DHT22;395;48.132;11.608;2023-01-05T09:58:25;12.30;3.50
827;DHT22;395;48.132;11.608;2023-01-05T10:01:14;12.30;3.70
827;DHT22;395;48.132;11.608;2023-01-05T10:06:15;12.40;3.30
827;DHT22;395;48.132;11.608;2023-01-05T10:08:48;12.40;3.20
827;DHT22;395;48.132;11.608;2023-01-05T10:11:21;12.40;3.10
827;DHT22;395;48.132;11.608;2023-01-05T10:14:23;12.30;3.00
827;DHT22;395;48.132;11.608;2023-01-05T10:16:50;12.40;2.70
827;DHT22;395;48.132;11.608;2023-01-05T10:19:18;12.40;2.60
827;DHT22;395;48.132;11.608;2023-01-05T10:22:06;12.40;2.20
827;DHT22;395;48.132;11.608;2023-01-05T10:27:51;12.40;1.30
827;DHT22;395;48.132;11.608;2023-01-05T10:30:22;12.40;1.50
827;DHT22;395;48.132;11.608;2023-01-05T10:32:59;12.30;1.60
827;DHT22;395;48.132;11.608;2023-01-05T10:46:08;12.40;1.30
827;DHT22;395;48.132;11.608;2023-01-05T10:48:34;12.40;1.20
827;DHT22;395;48.132;11.608;2023-01-05T10:51:01;12.50;1.00
827;DHT22;395;48.132;11.608;2023-01-05T10:53:29;12.40;1.00
827;DHT22;395;48.132;11.608;2023-01-05T10:56:02;12.40;1.00
827;DHT22;395;48.132;11.608;2023-01-05T10:58:34;12.50;1.00
827;DHT22;395;48.132;11.608;2023-01-05T11:03:41;12.50;1.00
827;DHT22;395;48.132;11.608;2023-01-05T11:06:18;12.50;1.00
827;DHT22;395;48.132;11.608;2023-01-05T11:08:45;12.50;1.00
827;DHT22;395;48.132;11.608;2023-01-05T11:11:23;12.50;1.00
827;DHT22;395;48.132;11.608;2023-01-05T11:13:54;12.60;1.00
827;DHT22;395;48.132;11.608;2023-01-05T11:16:29;12.60;1.00
827;DHT22;395;48.132;11.608;2023-01-05T11:19:00;12.60;1.00
827;DHT22;395;48.132;11.608;2023-01-05T11:21:41;12.50;1.00
827;DHT22;395;48.132;11.608;2023-01-05T11:26:50;12.50;1.00
827;DHT22;395;48.132;11.608;2023-01-05T11:29:17;12.60;1.00
827;DHT22;395;48.132;11.608;2023-01-05T11:32:04;12.60;1.00
827;DHT22;395;48.132;11.608;2023-01-05T11:37:05;12.50;1.00
827;DHT22;395;48.132;11.608;2023-01-05T11:45:21;12.40;5.20
827;DHT22;395;48.132;11.608;2023-01-05T11:47:52;12.50;5.80
827;DHT22;395;48.132;11.608;2023-01-05T11:50:22;12.50;7.70
827;DHT22;395;48.132;11.608;2023-01-05T11:52:56;12.50;8.40
827;DHT22;395;48.132;11.608;2023-01-05T11:55:31;12.40;8.20
827;DHT22;395;48.132;11.608;2023-01-05T12:05:55;12.50;8.60
827;DHT22;395;48.132;11.608;2023-01-05T12:09:11;12.50;9.00
827;DHT22;395;48.132;11.608;2023-01-05T12:11:17;12.50;9.50
827;DHT22;395;48.132;11.608;2023-01-05T12:19:28;12.40;10.20
827;DHT22;395;48.132;11.608;2023-01-05T12:28:01;12.50;9.50
827;DHT22;395;48.132;11.608;2023-01-05T12:30:41;12.50;9.00
827;DHT22;395;48.132;11.608;2023-01-05T12:35:56;12.40;8.50
827;DHT22;395;48.132;11.608;2023-01-05T12:38:37;12.50;8.30
827;DHT22;395;48.132;11.608;2023-01-05T12:41:34;12.60;7.90
827;DHT22;395;48.132;11.608;2023-01-05T12:49:24;12.60;7.10
827;DHT22;395;48.132;11.608;2023-01-05T12:52:07;12.50;7.10
827;DHT22;395;48.132;11.608;2023-01-05T12:57:10;12.50;6.50
827;DHT22;395;48.132;11.608;2023-01-05T13:10:20;12.70;5.40
827;DHT22;395;48.132;11.608;2023-01-05T13:12:52;12.70;5.40
827;DHT22;395;48.132;11.608;2023-01-05T13:15:24;12.80;5.40
827;DHT22;395;48.132;11.608;2023-01-05T13:17:53;12.70;5.40
827;DHT22;395;48.132;11.608;2023-01-05T13:20:40;12.70;5.40
827;DHT22;395;48.132;11.608;2023-01-05T13:23:20;12.80;5.50
827;DHT22;395;48.132;11.608;2023-01-05T13:26:06;12.80;6.10
827;DHT22;395;48.132;11.608;2023-01-05T13:28:32;12.80;6.30
827;DHT22;395;48.132;11.608;2023-01-05T13:40:26;12.70;8.00
827;DHT22;395;48.132;11.608;2023-01-05T13:48:19;12.60;9.40
827;DHT22;395;48.132;11.608;2023-01-05T13:53:31;12.40;10.20
827;DHT22;395;48.132;11.608;2023-01-05T13:56:03;12.50;10.30
827;DHT22;395;48.132;11.608;2023-01-05T13:59:11;12.60;9.80
827;DHT22;395;48.132;11.608;2023-01-05T14:01:59;12.60;10.20
827;DHT22;395;48.132;11.608;2023-01-05T14:04:30;12.60;9.80
827;DHT22;395;48.132;11.608;2023-01-05T14:07:11;12.50;9.70
827;DHT22;395;48.132;11.608;2023-01-05T14:09:43;12.50;9.30
827;DHT22;395;48.132;11.608;2023-01-05T14:17:55;12.40;9.60
827;DHT22;395;48.132;11.608;2023-01-05T14:20:45;12.40;9.40
827;DHT22;395;48.132;11.608;2023-01-05T14:26:00;12.30;9.60
827;DHT22;395;48.132;11.608;2023-01-05T14:33:48;12.50;7.80
827;DHT22;395;48.132;11.608;2023-01-05T14:36:30;12.40;7.50
827;DHT22;395;48.132;11.608;2023-01-05T14:38:59;12.40;7.20
827;DHT22;395;48.132;11.608;2023-01-05T14:41:27;12.40;6.60
827;DHT22;395;48.132;11.608;2023-01-05T14:44:17;12.40;7.20
827;DHT22;395;48.132;11.608;2023-01-05T14:46:51;12.40;7.10
827;DHT22;395;48.132;11.608;2023-01-05T14:51:56;12.40;9.90
827;DHT22;395;48.132;11.608;2023-01-05T14:59:58;12.30;13.00
827;DHT22;395;48.132;11.608;2023-01-05T15:02:31;12.20;13.40
827;DHT22;395;48.132;11.608;2023-01-05T15:05:05;12.10;14.00
827;DHT22;395;48.132;11.608;2023-01-05T15:10:54;12.10;14.10
827;DHT22;395;48.132;11.608;2023-01-05T15:16:33;12.10;12.00
827;DHT22;395;48.132;11.608;2023-01-05T15:21:55;12.00;7.20
827;DHT22;395;48.132;11.608;2023-01-05T15:32:27;12.00;4.80
827;DHT22;395;48.132;11.608;2023-01-05T15:35:20;11.90;3.90
827;DHT22;395;48.132;11.608;2023-01-05T15:37:49;11.90;4.10
827;DHT22;395;48.132;11.608;2023-01-05T15:42:52;12.00;3.90
827;DHT22;395;48.132;11.608;2023-01-05T15:47:47;12.00;3.20
827;DHT22;395;48.132;11.608;2023-01-05T15:50:24;12.00;3.20
827;DHT22;395;48.132;11.608;2023-01-05T15:52:56;12.00;3.00
827;DHT22;395;48.132;11.608;2023-01-05T15:55:22;12.00;2.60
827;DHT22;395;48.132;11.608;2023-01-05T15:58:03;12.00;2.30
827;DHT22;395;48.132;11.608;2023-01-05T16:00:31;12.10;2.40
827;DHT22;395;48.132;11.608;2023-01-05T16:02:57;12.10;2.40
827;DHT22;395;48.132;11.608;2023-01-05T16:05:29;12.10;3.00
827;DHT22;395;48.132;11.608;2023-01-05T16:08:00;12.10;3.80
827;DHT22;395;48.132;11.608;2023-01-05T16:10:58;12.10;4.80
827;DHT22;395;48.132;11.608;2023-01-05T16:13:52;12.10;4.90
827;DHT22;395;48.132;11.608;2023-01-05T16:16:28;12.20;5.90
827;DHT22;395;48.132;11.608;2023-01-05T16:18:59;12.20;7.00
827;DHT22;395;48.132;11.608;2023-01-05T16:21:41;12.00;7.50
827;DHT22;395;48.132;11.608;2023-01-05T16:26:44;12.10;7.80
827;DHT22;395;48.132;11.608;2023-01-05T16:31:55;12.00;10.40
827;DHT22;395;48.132;11.608;2023-01-05T16:34:22;12.00;11.40
827;DHT22;395;48.132;11.608;2023-01-05T16:37:15;12.00;11.80
827;DHT22;395;48.132;11.608;2023-01-05T16:39:43;12.10;12.00
827;DHT22;395;48.132;11.608;2023-01-05T16:42:21;12.00;12.60
827;DHT22;395;48.132;11.608;2023-01-05T16:45:17;12.00;12.80
827;DHT22;395;48.132;11.608;2023-01-05T16:47:43;12.00;13.40
827;DHT22;395;48.132;11.608;2023-01-05T16:53:14;12.10;14.30
827;DHT22;395;48.132;11.608;2023-01-05T16:55:40;12.20;14.90
827;DHT22;395;48.132;11.608;2023-01-05T17:01:14;12.20;13.20
827;DHT22;395;48.132;11.608;2023-01-05T17:03:41;12.20;12.40
827;DHT22;395;48.132;11.608;2023-01-05T17:06:28;12.10;12.40
827;DHT22;395;48.132;11.608;2023-01-05T17:08:57;12.10;12.40
827;DHT22;395;48.132;11.608;2023-01-05T17:11:33;12.10;12.40
827;DHT22;395;48.132;11.608;2023-01-05T17:13:59;12.10;12.90
827;DHT22;395;48.132;11.608;2023-01-05T17:16:26;12.00;12.30
827;DHT22;395;48.132;11.608;2023-01-05T17:18:52;12.00;11.70
827;DHT22;395;48.132;11.608;2023-01-05T17:21:20;12.00;11.30
827;DHT22;395;48.132;11.608;2023-01-05T17:23:53;12.00;11.50
827;DHT22;395;48.132;11.608;2023-01-05T17:26:25;12.00;11.70
827;DHT22;395;48.132;11.608;2023-01-05T17:28:56;11.90;12.10
827;DHT22;395;48.132;11.608;2023-01-05T17:31:22;11.90;11.80
827;DHT22;395;48.132;11.608;2023-01-05T17:33:49;11.90;11.90
827;DHT22;395;48.132;11.608;2023-01-05T17:36:16;11.90;11.50
827;DHT22;395;48.132;11.608;2023-01-05T17:38:41;12.00;11.70
827;DHT22;395;48.132;11.608;2023-01-05T17:41:09;12.00;11.50
827;DHT22;395;48.132;11.608;2023-01-05T17:43:36;12.00;11.20
827;DHT22;395;48.132;11.608;2023-01-05T17:46:02;11.90;10.70
827;DHT22;395;48.132;11.608;2023-01-05T17:48:28;12.00;11.30
827;DHT22;395;48.132;11.608;2023-01-05T17:50:53;11.90;10.60
827;DHT22;395;48.132;11.608;2023-01-05T17:53:19;11.90;10.00
827;DHT22;395;48.132;11.608;2023-01-05T17:55:45;11.90;10.60
827;DHT22;395;48.132;11.608;2023-01-05T17:58:12;11.90;10.70
827;DHT22;395;48.132;11.608;2023-01-05T18:00:39;11.90;10.70
827;DHT22;395;48.132;11.608;2023-01-05T18:03:14;11.90;10.40
827;DHT22;395;48.132;11.608;2023-01-05T18:05:42;11.90;10.50
827;DHT22;395;48.132;11.608;2023-01-05T18:08:09;12.00;10.20
827;DHT22;395;48.132;11.608;2023-01-05T18:10:35;11.90;10.10
827;DHT22;395;48.132;11.608;2023-01-05T18:13:01;11.90;10.10
827;DHT22;395;48.132;11.608;2023-01-05T18:15:27;11.90;10.50
827;DHT22;395;48.132;11.608;2023-01-05T18:18:03;11.90;10.60
827;DHT22;395;48.132;11.608;2023-01-05T18:20:28;12.00;11.20
827;DHT22;395;48.132;11.608;2023-01-05T18:22:54;12.00;11.10
827;DHT22;395;48.132;11.608;2023-01-05T18:25:20;11.90;10.20
827;DHT22;395;48.132;11.608;2023-01-05T18:27:46;11.90;10.60
827;DHT22;395;48.132;11.608;2023-01-05T18:30:12;12.00;10.80
827;DHT22;395;48.132;11.608;2023-01-05T18:32:38;12.00;10.80
827;DHT22;395;48.132;11.608;2023-01-05T18:35:05;12.00;10.40
827;DHT22;395;48.132;11.608;2023-01-05T18:37:31;12.00;10.50
827;DHT22;395;48.132;11.608;2023-01-05T18:39:57;12.00;10.90
827;DHT22;395;48.132;11.608;2023-01-05T18:42:23;12.10;11.00
827;DHT22;395;48.132;11.608;2023-01-05T18:44:49;12.10;10.50
827;DHT22;395;48.132;11.608;2023-01-05T18:47:14;12.00;10.30
827;DHT22;395;48.132;11.608;2023-01-05T18:49:40;12.00;10.40
827;DHT22;395;48.132;11.608;2023-01-05T18:52:06;12.00;10.60
827;DHT22;395;48.132;11.608;2023-01-05T18:54:32;12.10;10.90
827;DHT22;395;48.132;11.608;2023-01-05T18:56:57;12.10;11.20
827;DHT22;395;48.132;11.608;2023-01-05T18:59:23;12.10;11.20
827;DHT22;395;48.132;11.608;2023-01-05T19:01:49;12.10;11.10
827;DHT22;395;48.132;11.608;2023-01-05T19:04:15;12.10;10.90
827;DHT22;395;48.132;11.608;2023-01-05T19:06:42;12.10;11.20
827;DHT22;395;48.132;11.608;2023-01-05T19:09:09;12.10;12.40
827;DHT22;395;48.132;11.608;2023-01-05T19:11:37;12.20;12.50
827;DHT22;395;48.132;11.608;2023-01-05T19:14:04;12.20;12.40
827;DHT22;395;48.132;11.608;2023-01-05T19:16:32;12.20;12.40
827;DHT22;395;48.132;11.608;2023-01-05T19:19:00;12.20;12.50
827;DHT22;395;48.132;11.608;2023-01-05T19:21:30;12.30;12.50
827;DHT22;395;48.132;11.608;2023-01-05T19:23:57;12.20;13.00
827;DHT22;395;48.132;11.608;2023-01-05T19:26:24;12.20;12.60
827;DHT22;395;48.132;11.608;2023-01-05T19:28:50;12.10;13.20
827;DHT22;395;48.132;11.608;2023-01-05T19:31:16;12.10;13.70
827;DHT22;395;48.132;11.608;2023-01-05T19:33:43;12.20;14.20